sensor_id;sensor_type;location;lat;lon;timestamp;P1;durP1;ratioP1;P2;durP2;ratioP2
58647;SDS011;45992;45.920;20.074;2022-07-22T00:01:21;9.48;;;5.00;;
58647;SDS011;45992;45.920;20.074;2022-07-22T00:03:47;16.63;;;5.38;;
58647;SDS011;45992;45.920;20.074;2022-07-22T00:06:13;15.18;;;5.35;;
58647;SDS011;45992;45.920;20.074;2022-07-22T00:08:39;8.25;;;4.88;;
58647;SDS011;45992;45.920;20.074;2022-07-22T00:11:05;11.10;;;5.32;;
58647;SDS011;45992;45.920;20.074;2022-07-22T00:13:31;9.57;;;5.45;;
58647;SDS011;45992;45.920;20.074;2022-07-22T00:15:57;12.25;;;5.20;;
58647;SDS011;45992;45.920;20.074;2022-07-22T00:18:23;8.60;;;4.78;;
58647;SDS011;45992;45.920;20.074;2022-07-22T00:20:50;10.32;;;5.28;;
58647;SDS011;45992;45.920;20.074;2022-07-22T00:23:16;11.45;;;5.25;;
58647;SDS011;45992;45.920;20.074;2022-07-22T00:25:42;11.93;;;5.72;;
58647;SDS011;45992;45.920;20.074;2022-07-22T00:28:08;7.97;;;4.65;;
58647;SDS011;45992;45.920;20.074;2022-07-22T00:30:34;11.82;;;5.53;;
58647;SDS011;45992;45.920;20.074;2022-07-22T00:33:00;11.85;;;4.97;;
58647;SDS011;45992;45.920;20.074;2022-07-22T00:35:26;9.15;;;4.80;;
58647;SDS011;45992;45.920;20.074;2022-07-22T00:37:52;10.63;;;4.80;;
58647;SDS011;45992;45.920;20.074;2022-07-22T00:40:18;11.90;;;5.47;;
58647;SDS011;45992;45.920;20.074;2022-07-22T00:42:44;10.35;;;4.95;;
58647;SDS011;45992;45.920;20.074;2022-07-22T00:45:10;9.57;;;4.80;;
58647;SDS011;45992;45.920;20.074;2022-07-22T00:47:37;11.70;;;5.60;;
58647;SDS011;45992;45.920;20.074;2022-07-22T00:50:03;9.13;;;5.20;;
58647;SDS011;45992;45.920;20.074;2022-07-22T00:52:30;14.15;;;4.55;;
58647;SDS011;45992;45.920;20.074;2022-07-22T00:54:57;11.63;;;5.15;;
58647;SDS011;45992;45.920;20.074;2022-07-22T00:57:24;11.73;;;5.10;;
58647;SDS011;45992;45.920;20.074;2022-07-22T00:59:50;11.30;;;4.63;;
58647;SDS011;45992;45.920;20.074;2022-07-22T01:02:16;10.95;;;4.68;;
58647;SDS011;45992;45.920;20.074;2022-07-22T01:04:42;9.43;;;5.00;;
58647;SDS011;45992;45.920;20.074;2022-07-22T01:07:08;8.32;;;4.30;;
58647;SDS011;45992;45.920;20.074;2022-07-22T01:09:34;9.52;;;4.40;;
58647;SDS011;45992;45.920;20.074;2022-07-22T01:12:00;11.00;;;5.40;;
58647;SDS011;45992;45.920;20.074;2022-07-22T01:16:52;11.55;;;5.15;;
58647;SDS011;45992;45.920;20.074;2022-07-22T01:19:18;11.48;;;5.63;;
58647;SDS011;45992;45.920;20.074;2022-07-22T01:21:44;10.80;;;4.60;;
58647;SDS011;45992;45.920;20.074;2022-07-22T01:24:10;8.68;;;4.45;;
58647;SDS011;45992;45.920;20.074;2022-07-22T01:26:36;12.68;;;5.32;;
58647;SDS011;45992;45.920;20.074;2022-07-22T01:29:03;11.30;;;5.00;;
58647;SDS011;45992;45.920;20.074;2022-07-22T01:33:55;11.50;;;5.20;;
58647;SDS011;45992;45.920;20.074;2022-07-22T01:38:47;11.48;;;4.97;;
58647;SDS011;45992;45.920;20.074;2022-07-22T01:41:13;8.75;;;4.45;;
58647;SDS011;45992;45.920;20.074;2022-07-22T01:43:39;12.13;;;5.18;;
58647;SDS011;45992;45.920;20.074;2022-07-22T01:46:05;10.50;;;4.75;;
58647;SDS011;45992;45.920;20.074;2022-07-22T01:48:31;9.77;;;4.78;;
58647;SDS011;45992;45.920;20.074;2022-07-22T01:50:58;9.27;;;4.78;;
58647;SDS011;45992;45.920;20.074;2022-07-22T01:53:24;10.27;;;5.43;;
58647;SDS011;45992;45.920;20.074;2022-07-22T01:55:50;10.40;;;4.95;;
58647;SDS011;45992;45.920;20.074;2022-07-22T01:58:16;12.27;;;4.97;;
58647;SDS011;45992;45.920;20.074;2022-07-22T02:00:43;10.45;;;4.65;;
58647;SDS011;45992;45.920;20.074;2022-07-22T02:03:09;10.40;;;4.85;;
58647;SDS011;45992;45.920;20.074;2022-07-22T02:05:36;12.07;;;5.20;;
58647;SDS011;45992;45.920;20.074;2022-07-22T02:10:28;8.90;;;4.85;;
58647;SDS011;45992;45.920;20.074;2022-07-22T02:12:54;8.98;;;4.47;;
58647;SDS011;45992;45.920;20.074;2022-07-22T02:15:20;12.27;;;5.68;;
58647;SDS011;45992;45.920;20.074;2022-07-22T02:17:46;13.07;;;5.05;;
58647;SDS011;45992;45.920;20.074;2022-07-22T02:20:12;9.23;;;4.97;;
58647;SDS011;45992;45.920;20.074;2022-07-22T02:22:38;11.65;;;5.68;;
58647;SDS011;45992;45.920;20.074;2022-07-22T02:25:04;10.10;;;6.15;;
58647;SDS011;45992;45.920;20.074;2022-07-22T02:27:30;12.25;;;6.05;;
58647;SDS011;45992;45.920;20.074;2022-07-22T02:29:56;11.55;;;5.72;;
58647;SDS011;45992;45.920;20.074;2022-07-22T02:32:22;10.82;;;5.72;;
58647;SDS011;45992;45.920;20.074;2022-07-22T02:34:48;12.18;;;6.07;;
58647;SDS011;45992;45.920;20.074;2022-07-22T02:37:14;10.35;;;4.90;;
58647;SDS011;45992;45.920;20.074;2022-07-22T02:39:41;10.63;;;5.93;;
58647;SDS011;45992;45.920;20.074;2022-07-22T02:42:07;13.05;;;6.00;;
58647;SDS011;45992;45.920;20.074;2022-07-22T02:44:33;13.95;;;7.40;;
58647;SDS011;45992;45.920;20.074;2022-07-22T02:46:59;16.88;;;6.65;;
58647;SDS011;45992;45.920;20.074;2022-07-22T02:49:25;12.20;;;6.72;;
58647;SDS011;45992;45.920;20.074;2022-07-22T02:51:51;17.20;;;6.72;;
58647;SDS011;45992;45.920;20.074;2022-07-22T02:54:17;11.32;;;5.53;;
58647;SDS011;45992;45.920;20.074;2022-07-22T02:56:43;13.65;;;6.50;;
58647;SDS011;45992;45.920;20.074;2022-07-22T02:59:09;10.45;;;6.60;;
58647;SDS011;45992;45.920;20.074;2022-07-22T03:01:35;11.70;;;6.03;;
58647;SDS011;45992;45.920;20.074;2022-07-22T03:04:01;13.70;;;6.90;;
58647;SDS011;45992;45.920;20.074;2022-07-22T03:06:27;10.20;;;6.55;;
58647;SDS011;45992;45.920;20.074;2022-07-22T03:08:53;10.48;;;5.90;;
58647;SDS011;45992;45.920;20.074;2022-07-22T03:11:19;16.55;;;6.20;;
58647;SDS011;45992;45.920;20.074;2022-07-22T03:13:45;11.55;;;6.50;;
58647;SDS011;45992;45.920;20.074;2022-07-22T03:16:11;11.75;;;6.75;;
58647;SDS011;45992;45.920;20.074;2022-07-22T03:18:37;11.00;;;6.50;;
58647;SDS011;45992;45.920;20.074;2022-07-22T03:21:03;13.35;;;7.43;;
58647;SDS011;45992;45.920;20.074;2022-07-22T03:23:29;9.80;;;6.57;;
58647;SDS011;45992;45.920;20.074;2022-07-22T03:25:55;10.68;;;6.35;;
58647;SDS011;45992;45.920;20.074;2022-07-22T03:28:22;11.65;;;6.25;;
58647;SDS011;45992;45.920;20.074;2022-07-22T03:30:48;14.68;;;7.32;;
58647;SDS011;45992;45.920;20.074;2022-07-22T03:33:14;11.27;;;6.78;;
58647;SDS011;45992;45.920;20.074;2022-07-22T03:35:40;12.18;;;7.47;;
58647;SDS011;45992;45.920;20.074;2022-07-22T03:38:06;13.32;;;7.38;;
58647;SDS011;45992;45.920;20.074;2022-07-22T03:40:32;12.48;;;5.75;;
58647;SDS011;45992;45.920;20.074;2022-07-22T03:42:58;16.40;;;7.53;;
58647;SDS011;45992;45.920;20.074;2022-07-22T03:45:24;17.48;;;8.57;;
58647;SDS011;45992;45.920;20.074;2022-07-22T03:47:50;19.83;;;10.18;;
58647;SDS011;45992;45.920;20.074;2022-07-22T03:50:19;16.48;;;9.20;;
58647;SDS011;45992;45.920;20.074;2022-07-22T03:52:45;17.65;;;9.85;;
58647;SDS011;45992;45.920;20.074;2022-07-22T03:55:11;18.55;;;10.23;;
58647;SDS011;45992;45.920;20.074;2022-07-22T03:57:37;14.35;;;10.05;;
58647;SDS011;45992;45.920;20.074;2022-07-22T04:00:04;18.48;;;9.00;;
58647;SDS011;45992;45.920;20.074;2022-07-22T04:02:31;16.63;;;8.57;;
58647;SDS011;45992;45.920;20.074;2022-07-22T04:04:57;14.73;;;8.68;;
58647;SDS011;45992;45.920;20.074;2022-07-22T04:07:23;16.83;;;7.45;;
58647;SDS011;45992;45.920;20.074;2022-07-22T04:09:49;13.95;;;7.97;;
58647;SDS011;45992;45.920;20.074;2022-07-22T04:12:15;17.25;;;7.85;;
58647;SDS011;45992;45.920;20.074;2022-07-22T04:17:07;14.07;;;7.65;;
58647;SDS011;45992;45.920;20.074;2022-07-22T04:19:33;11.07;;;7.60;;
58647;SDS011;45992;45.920;20.074;2022-07-22T04:24:25;10.65;;;7.97;;
58647;SDS011;45992;45.920;20.074;2022-07-22T04:29:17;11.40;;;7.65;;
58647;SDS011;45992;45.920;20.074;2022-07-22T04:31:43;9.95;;;8.40;;
58647;SDS011;45992;45.920;20.074;2022-07-22T04:34:09;8.82;;;7.93;;
58647;SDS011;45992;45.920;20.074;2022-07-22T04:36:35;14.30;;;8.45;;
58647;SDS011;45992;45.920;20.074;2022-07-22T04:39:01;10.57;;;8.23;;
58647;SDS011;45992;45.920;20.074;2022-07-22T04:41:27;14.10;;;8.40;;
58647;SDS011;45992;45.920;20.074;2022-07-22T04:43:53;9.15;;;8.10;;
58647;SDS011;45992;45.920;20.074;2022-07-22T04:46:19;14.95;;;9.45;;
58647;SDS011;45992;45.920;20.074;2022-07-22T04:48:46;10.93;;;8.52;;
58647;SDS011;45992;45.920;20.074;2022-07-22T04:51:12;12.40;;;8.07;;
58647;SDS011;45992;45.920;20.074;2022-07-22T04:53:38;9.45;;;8.40;;
58647;SDS011;45992;45.920;20.074;2022-07-22T04:56:04;12.15;;;8.10;;
58647;SDS011;45992;45.920;20.074;2022-07-22T04:58:30;10.68;;;7.57;;
58647;SDS011;45992;45.920;20.074;2022-07-22T05:00:56;9.55;;;7.95;;
58647;SDS011;45992;45.920;20.074;2022-07-22T05:03:22;10.30;;;8.05;;
58647;SDS011;45992;45.920;20.074;2022-07-22T05:05:49;8.48;;;7.45;;
58647;SDS011;45992;45.920;20.074;2022-07-22T05:08:15;8.02;;;7.07;;
58647;SDS011;45992;45.920;20.074;2022-07-22T05:10:41;12.05;;;7.40;;
58647;SDS011;45992;45.920;20.074;2022-07-22T05:13:07;11.48;;;7.10;;
58647;SDS011;45992;45.920;20.074;2022-07-22T05:15:33;11.45;;;6.93;;
58647;SDS011;45992;45.920;20.074;2022-07-22T05:17:59;8.35;;;6.75;;
58647;SDS011;45992;45.920;20.074;2022-07-22T05:20:25;11.00;;;6.55;;
58647;SDS011;45992;45.920;20.074;2022-07-22T05:22:51;11.25;;;6.80;;
58647;SDS011;45992;45.920;20.074;2022-07-22T05:25:18;10.13;;;7.03;;
58647;SDS011;45992;45.920;20.074;2022-07-22T05:27:53;12.15;;;7.32;;
58647;SDS011;45992;45.920;20.074;2022-07-22T05:30:19;10.52;;;6.85;;
58647;SDS011;45992;45.920;20.074;2022-07-22T05:32:45;10.10;;;6.75;;
58647;SDS011;45992;45.920;20.074;2022-07-22T05:35:11;6.78;;;5.82;;
58647;SDS011;45992;45.920;20.074;2022-07-22T05:37:37;10.73;;;5.60;;
58647;SDS011;45992;45.920;20.074;2022-07-22T05:40:04;19.25;;;7.57;;
58647;SDS011;45992;45.920;20.074;2022-07-22T05:42:30;10.60;;;7.50;;
58647;SDS011;45992;45.920;20.074;2022-07-22T05:44:56;13.50;;;7.00;;
58647;SDS011;45992;45.920;20.074;2022-07-22T05:47:22;8.70;;;5.85;;
58647;SDS011;45992;45.920;20.074;2022-07-22T05:49:48;8.88;;;5.80;;
58647;SDS011;45992;45.920;20.074;2022-07-22T05:52:14;10.50;;;7.20;;
58647;SDS011;45992;45.920;20.074;2022-07-22T05:54:40;12.60;;;6.32;;
58647;SDS011;45992;45.920;20.074;2022-07-22T05:57:06;8.77;;;5.28;;
58647;SDS011;45992;45.920;20.074;2022-07-22T05:59:36;6.72;;;4.90;;
58647;SDS011;45992;45.920;20.074;2022-07-22T06:02:02;7.18;;;5.70;;
58647;SDS011;45992;45.920;20.074;2022-07-22T06:04:28;9.38;;;6.43;;
58647;SDS011;45992;45.920;20.074;2022-07-22T06:06:54;9.05;;;5.75;;
58647;SDS011;45992;45.920;20.074;2022-07-22T06:09:20;8.60;;;5.60;;
58647;SDS011;45992;45.920;20.074;2022-07-22T06:11:46;6.32;;;5.15;;
58647;SDS011;45992;45.920;20.074;2022-07-22T06:14:12;8.75;;;5.25;;
58647;SDS011;45992;45.920;20.074;2022-07-22T06:16:38;6.15;;;4.70;;
58647;SDS011;45992;45.920;20.074;2022-07-22T06:19:04;7.47;;;4.93;;
58647;SDS011;45992;45.920;20.074;2022-07-22T06:21:30;8.32;;;4.97;;
58647;SDS011;45992;45.920;20.074;2022-07-22T06:23:57;8.50;;;4.88;;
58647;SDS011;45992;45.920;20.074;2022-07-22T06:26:23;9.68;;;5.57;;
58647;SDS011;45992;45.920;20.074;2022-07-22T06:28:49;6.25;;;4.60;;
58647;SDS011;45992;45.920;20.074;2022-07-22T06:31:15;8.52;;;5.00;;
58647;SDS011;45992;45.920;20.074;2022-07-22T06:33:41;7.95;;;4.20;;
58647;SDS011;45992;45.920;20.074;2022-07-22T06:36:07;8.82;;;4.70;;
58647;SDS011;45992;45.920;20.074;2022-07-22T06:38:33;9.30;;;4.35;;
58647;SDS011;45992;45.920;20.074;2022-07-22T06:40:59;6.15;;;4.10;;
58647;SDS011;45992;45.920;20.074;2022-07-22T06:43:26;9.25;;;4.88;;
58647;SDS011;45992;45.920;20.074;2022-07-22T06:45:53;11.98;;;4.40;;
58647;SDS011;45992;45.920;20.074;2022-07-22T06:48:20;6.57;;;4.30;;
58647;SDS011;45992;45.920;20.074;2022-07-22T06:50:46;10.00;;;4.40;;
58647;SDS011;45992;45.920;20.074;2022-07-22T06:53:12;7.25;;;4.07;;
58647;SDS011;45992;45.920;20.074;2022-07-22T06:55:38;7.30;;;4.13;;
58647;SDS011;45992;45.920;20.074;2022-07-22T06:58:04;6.10;;;3.50;;
58647;SDS011;45992;45.920;20.074;2022-07-22T07:00:30;7.40;;;3.95;;
58647;SDS011;45992;45.920;20.074;2022-07-22T07:03:00;6.70;;;3.85;;
58647;SDS011;45992;45.920;20.074;2022-07-22T07:05:26;6.47;;;3.42;;
58647;SDS011;45992;45.920;20.074;2022-07-22T07:07:54;6.65;;;3.75;;
58647;SDS011;45992;45.920;20.074;2022-07-22T07:10:20;9.65;;;4.00;;
58647;SDS011;45992;45.920;20.074;2022-07-22T07:12:46;7.07;;;3.58;;
58647;SDS011;45992;45.920;20.074;2022-07-22T07:15:12;7.85;;;3.67;;
58647;SDS011;45992;45.920;20.074;2022-07-22T07:17:39;7.35;;;3.67;;
58647;SDS011;45992;45.920;20.074;2022-07-22T07:20:05;9.02;;;3.35;;
58647;SDS011;45992;45.920;20.074;2022-07-22T07:22:32;7.28;;;4.28;;
58647;SDS011;45992;45.920;20.074;2022-07-22T07:25:01;8.90;;;3.55;;
58647;SDS011;45992;45.920;20.074;2022-07-22T07:27:28;7.28;;;3.50;;
58647;SDS011;45992;45.920;20.074;2022-07-22T07:29:54;11.20;;;4.05;;
58647;SDS011;45992;45.920;20.074;2022-07-22T07:32:20;8.82;;;3.85;;
58647;SDS011;45992;45.920;20.074;2022-07-22T07:34:46;6.00;;;3.15;;
58647;SDS011;45992;45.920;20.074;2022-07-22T07:37:12;7.93;;;3.22;;
58647;SDS011;45992;45.920;20.074;2022-07-22T07:39:38;8.48;;;3.53;;
58647;SDS011;45992;45.920;20.074;2022-07-22T07:42:04;9.85;;;3.22;;
58647;SDS011;45992;45.920;20.074;2022-07-22T07:44:30;7.40;;;3.42;;
58647;SDS011;45992;45.920;20.074;2022-07-22T07:46:56;7.03;;;2.97;;
58647;SDS011;45992;45.920;20.074;2022-07-22T07:49:22;7.20;;;3.15;;
58647;SDS011;45992;45.920;20.074;2022-07-22T07:51:48;7.60;;;3.33;;
58647;SDS011;45992;45.920;20.074;2022-07-22T07:54:14;6.90;;;3.28;;
58647;SDS011;45992;45.920;20.074;2022-07-22T07:56:41;6.85;;;2.80;;
58647;SDS011;45992;45.920;20.074;2022-07-22T07:59:07;5.50;;;2.78;;
58647;SDS011;45992;45.920;20.074;2022-07-22T08:01:33;5.95;;;3.00;;
58647;SDS011;45992;45.920;20.074;2022-07-22T08:03:59;7.93;;;2.92;;
58647;SDS011;45992;45.920;20.074;2022-07-22T08:06:25;7.78;;;2.90;;
58647;SDS011;45992;45.920;20.074;2022-07-22T08:08:51;5.68;;;3.08;;
58647;SDS011;45992;45.920;20.074;2022-07-22T08:11:17;8.25;;;3.10;;
58647;SDS011;45992;45.920;20.074;2022-07-22T08:13:43;5.85;;;2.72;;
58647;SDS011;45992;45.920;20.074;2022-07-22T08:16:09;7.72;;;3.00;;
58647;SDS011;45992;45.920;20.074;2022-07-22T08:18:35;7.90;;;3.00;;
58647;SDS011;45992;45.920;20.074;2022-07-22T08:21:01;7.85;;;2.80;;
58647;SDS011;45992;45.920;20.074;2022-07-22T08:23:27;5.60;;;3.35;;
58647;SDS011;45992;45.920;20.074;2022-07-22T08:25:53;5.25;;;2.60;;
58647;SDS011;45992;45.920;20.074;2022-07-22T08:28:19;7.03;;;2.83;;
58647;SDS011;45992;45.920;20.074;2022-07-22T08:30:45;7.03;;;2.65;;
58647;SDS011;45992;45.920;20.074;2022-07-22T08:33:12;5.90;;;2.67;;
58647;SDS011;45992;45.920;20.074;2022-07-22T08:35:38;7.47;;;3.13;;
58647;SDS011;45992;45.920;20.074;2022-07-22T08:38:04;7.35;;;2.60;;
58647;SDS011;45992;45.920;20.074;2022-07-22T08:40:30;7.47;;;2.55;;
58647;SDS011;45992;45.920;20.074;2022-07-22T08:42:56;7.78;;;2.83;;
58647;SDS011;45992;45.920;20.074;2022-07-22T08:45:25;6.03;;;2.70;;
58647;SDS011;45992;45.920;20.074;2022-07-22T08:47:51;5.80;;;2.63;;
58647;SDS011;45992;45.920;20.074;2022-07-22T08:50:18;6.15;;;2.45;;
58647;SDS011;45992;45.920;20.074;2022-07-22T08:52:44;10.10;;;2.97;;
58647;SDS011;45992;45.920;20.074;2022-07-22T08:55:10;7.53;;;2.58;;
58647;SDS011;45992;45.920;20.074;2022-07-22T08:57:36;7.25;;;2.38;;
58647;SDS011;45992;45.920;20.074;2022-07-22T09:00:07;5.72;;;2.58;;
58647;SDS011;45992;45.920;20.074;2022-07-22T09:02:38;6.00;;;2.53;;
58647;SDS011;45992;45.920;20.074;2022-07-22T09:05:06;5.65;;;2.42;;
58647;SDS011;45992;45.920;20.074;2022-07-22T09:07:33;8.73;;;2.50;;
58647;SDS011;45992;45.920;20.074;2022-07-22T09:10:01;5.28;;;2.72;;
58647;SDS011;45992;45.920;20.074;2022-07-22T09:12:27;6.25;;;2.38;;
58647;SDS011;45992;45.920;20.074;2022-07-22T09:14:55;5.65;;;1.92;;
58647;SDS011;45992;45.920;20.074;2022-07-22T09:17:23;5.47;;;2.40;;
58647;SDS011;45992;45.920;20.074;2022-07-22T09:19:49;8.32;;;2.40;;
58647;SDS011;45992;45.920;20.074;2022-07-22T09:22:18;5.10;;;2.03;;
58647;SDS011;45992;45.920;20.074;2022-07-22T09:24:55;5.10;;;2.30;;
58647;SDS011;45992;45.920;20.074;2022-07-22T09:27:25;4.85;;;1.83;;
58647;SDS011;45992;45.920;20.074;2022-07-22T09:29:51;4.57;;;2.05;;
58647;SDS011;45992;45.920;20.074;2022-07-22T09:32:18;6.22;;;2.45;;
58647;SDS011;45992;45.920;20.074;2022-07-22T09:34:44;6.82;;;2.40;;
58647;SDS011;45992;45.920;20.074;2022-07-22T09:37:10;6.20;;;2.10;;
58647;SDS011;45992;45.920;20.074;2022-07-22T09:39:37;6.35;;;2.00;;
58647;SDS011;45992;45.920;20.074;2022-07-22T09:42:04;4.88;;;1.75;;
58647;SDS011;45992;45.920;20.074;2022-07-22T09:44:31;7.03;;;2.03;;
58647;SDS011;45992;45.920;20.074;2022-07-22T09:46:57;5.55;;;2.08;;
58647;SDS011;45992;45.920;20.074;2022-07-22T09:49:36;5.93;;;2.05;;
58647;SDS011;45992;45.920;20.074;2022-07-22T09:52:04;7.63;;;2.97;;
58647;SDS011;45992;45.920;20.074;2022-07-22T09:54:30;5.55;;;2.47;;
58647;SDS011;45992;45.920;20.074;2022-07-22T09:56:57;6.32;;;2.25;;
58647;SDS011;45992;45.920;20.074;2022-07-22T09:59:23;6.40;;;2.30;;
58647;SDS011;45992;45.920;20.074;2022-07-22T10:01:50;7.10;;;2.97;;
58647;SDS011;45992;45.920;20.074;2022-07-22T10:04:17;5.68;;;2.25;;
58647;SDS011;45992;45.920;20.074;2022-07-22T10:06:45;5.40;;;2.13;;
58647;SDS011;45992;45.920;20.074;2022-07-22T10:09:12;8.65;;;2.60;;
58647;SDS011;45992;45.920;20.074;2022-07-22T10:11:39;6.50;;;2.53;;
58647;SDS011;45992;45.920;20.074;2022-07-22T10:14:10;6.10;;;2.17;;
58647;SDS011;45992;45.920;20.074;2022-07-22T10:16:36;6.22;;;2.35;;
58647;SDS011;45992;45.920;20.074;2022-07-22T10:19:02;9.10;;;2.65;;
58647;SDS011;45992;45.920;20.074;2022-07-22T10:21:32;8.27;;;2.47;;
58647;SDS011;45992;45.920;20.074;2022-07-22T10:29:32;9.05;;;2.65;;
58647;SDS011;45992;45.920;20.074;2022-07-22T10:35:27;7.68;;;1.90;;
58647;SDS011;45992;45.920;20.074;2022-07-22T10:45:20;7.18;;;2.13;;
58647;SDS011;45992;45.920;20.074;2022-07-22T10:47:56;9.45;;;4.32;;
58647;SDS011;45992;45.920;20.074;2022-07-22T10:53:05;8.85;;;2.28;;
58647;SDS011;45992;45.920;20.074;2022-07-22T10:55:31;7.68;;;2.38;;
58647;SDS011;45992;45.920;20.074;2022-07-22T10:57:57;10.07;;;2.80;;
58647;SDS011;45992;45.920;20.074;2022-07-22T11:00:24;6.63;;;2.40;;
58647;SDS011;45992;45.920;20.074;2022-07-22T11:02:50;6.40;;;2.40;;
58647;SDS011;45992;45.920;20.074;2022-07-22T11:05:26;7.50;;;2.38;;
58647;SDS011;45992;45.920;20.074;2022-07-22T11:07:54;8.10;;;2.78;;
58647;SDS011;45992;45.920;20.074;2022-07-22T11:10:20;6.25;;;2.35;;
58647;SDS011;45992;45.920;20.074;2022-07-22T11:12:47;6.88;;;2.40;;
58647;SDS011;45992;45.920;20.074;2022-07-22T11:15:13;8.65;;;2.72;;
58647;SDS011;45992;45.920;20.074;2022-07-22T11:17:40;9.80;;;2.72;;
58647;SDS011;45992;45.920;20.074;2022-07-22T11:20:07;5.53;;;2.08;;
58647;SDS011;45992;45.920;20.074;2022-07-22T11:22:34;12.25;;;3.10;;
58647;SDS011;45992;45.920;20.074;2022-07-22T11:25:02;6.45;;;2.42;;
58647;SDS011;45992;45.920;20.074;2022-07-22T11:27:29;7.97;;;2.38;;
58647;SDS011;45992;45.920;20.074;2022-07-22T11:29:55;6.50;;;2.30;;
58647;SDS011;45992;45.920;20.074;2022-07-22T11:32:23;7.50;;;2.40;;
58647;SDS011;45992;45.920;20.074;2022-07-22T11:34:49;6.97;;;2.70;;
58647;SDS011;45992;45.920;20.074;2022-07-22T11:37:16;6.50;;;2.50;;
58647;SDS011;45992;45.920;20.074;2022-07-22T11:39:43;5.50;;;2.22;;
58647;SDS011;45992;45.920;20.074;2022-07-22T11:42:09;6.72;;;2.67;;
58647;SDS011;45992;45.920;20.074;2022-07-22T11:44:36;9.18;;;2.38;;
58647;SDS011;45992;45.920;20.074;2022-07-22T11:47:03;5.18;;;1.85;;
58647;SDS011;45992;45.920;20.074;2022-07-22T11:49:31;10.02;;;2.63;;
58647;SDS011;45992;45.920;20.074;2022-07-22T11:51:59;10.25;;;2.40;;
58647;SDS011;45992;45.920;20.074;2022-07-22T11:54:25;6.97;;;2.60;;
58647;SDS011;45992;45.920;20.074;2022-07-22T11:56:51;7.90;;;2.40;;
58647;SDS011;45992;45.920;20.074;2022-07-22T11:59:18;6.85;;;2.60;;
58647;SDS011;45992;45.920;20.074;2022-07-22T12:01:45;10.70;;;2.42;;
58647;SDS011;45992;45.920;20.074;2022-07-22T12:04:13;6.75;;;2.40;;
58647;SDS011;45992;45.920;20.074;2022-07-22T12:06:40;6.88;;;2.20;;
58647;SDS011;45992;45.920;20.074;2022-07-22T12:09:14;7.65;;;2.70;;
58647;SDS011;45992;45.920;20.074;2022-07-22T12:11:42;6.40;;;2.33;;
58647;SDS011;45992;45.920;20.074;2022-07-22T12:14:12;10.85;;;2.97;;
58647;SDS011;45992;45.920;20.074;2022-07-22T12:16:39;6.65;;;2.70;;
58647;SDS011;45992;45.920;20.074;2022-07-22T12:19:06;7.57;;;2.88;;
58647;SDS011;45992;45.920;20.074;2022-07-22T12:24:24;9.70;;;3.10;;
58647;SDS011;45992;45.920;20.074;2022-07-22T12:26:51;8.15;;;2.88;;
58647;SDS011;45992;45.920;20.074;2022-07-22T12:29:59;7.72;;;3.03;;
58647;SDS011;45992;45.920;20.074;2022-07-22T12:32:08;9.70;;;3.03;;
58647;SDS011;45992;45.920;20.074;2022-07-22T12:39:55;6.28;;;3.08;;
58647;SDS011;45992;45.920;20.074;2022-07-22T12:42:21;10.85;;;2.60;;
58647;SDS011;45992;45.920;20.074;2022-07-22T12:45:04;6.82;;;2.70;;
58647;SDS011;45992;45.920;20.074;2022-07-22T12:52:51;9.25;;;2.60;;
58647;SDS011;45992;45.920;20.074;2022-07-22T12:55:17;6.95;;;2.78;;
58647;SDS011;45992;45.920;20.074;2022-07-22T12:57:43;7.57;;;2.58;;
58647;SDS011;45992;45.920;20.074;2022-07-22T13:00:09;8.45;;;3.05;;
58647;SDS011;45992;45.920;20.074;2022-07-22T13:02:36;6.50;;;2.55;;
58647;SDS011;45992;45.920;20.074;2022-07-22T13:05:03;7.28;;;2.63;;
58647;SDS011;45992;45.920;20.074;2022-07-22T13:07:30;6.75;;;2.47;;
58647;SDS011;45992;45.920;20.074;2022-07-22T13:09:56;10.55;;;2.97;;
58647;SDS011;45992;45.920;20.074;2022-07-22T13:12:22;8.32;;;2.80;;
58647;SDS011;45992;45.920;20.074;2022-07-22T13:14:48;6.88;;;2.92;;
58647;SDS011;45992;45.920;20.074;2022-07-22T13:17:14;7.70;;;2.50;;
58647;SDS011;45992;45.920;20.074;2022-07-22T13:19:40;10.02;;;3.08;;
58647;SDS011;45992;45.920;20.074;2022-07-22T13:22:06;6.40;;;3.00;;
58647;SDS011;45992;45.920;20.074;2022-07-22T13:24:32;6.85;;;2.83;;
58647;SDS011;45992;45.920;20.074;2022-07-22T13:26:59;6.85;;;2.95;;
58647;SDS011;45992;45.920;20.074;2022-07-22T13:29:25;8.52;;;3.25;;
58647;SDS011;45992;45.920;20.074;2022-07-22T13:31:51;6.07;;;2.90;;
58647;SDS011;45992;45.920;20.074;2022-07-22T13:34:17;10.90;;;3.05;;
58647;SDS011;45992;45.920;20.074;2022-07-22T13:36:43;7.35;;;3.38;;
58647;SDS011;45992;45.920;20.074;2022-07-22T13:39:09;9.10;;;3.22;;
58647;SDS011;45992;45.920;20.074;2022-07-22T13:41:35;7.13;;;3.00;;
58647;SDS011;45992;45.920;20.074;2022-07-22T13:44:01;8.20;;;3.47;;
58647;SDS011;45992;45.920;20.074;2022-07-22T13:46:27;7.18;;;3.03;;
58647;SDS011;45992;45.920;20.074;2022-07-22T13:48:54;9.07;;;3.10;;
58647;SDS011;45992;45.920;20.074;2022-07-22T13:51:20;9.73;;;3.20;;
58647;SDS011;45992;45.920;20.074;2022-07-22T13:53:46;8.30;;;2.97;;
58647;SDS011;45992;45.920;20.074;2022-07-22T13:56:12;9.93;;;3.05;;
58647;SDS011;45992;45.920;20.074;2022-07-22T13:58:38;8.75;;;3.40;;
58647;SDS011;45992;45.920;20.074;2022-07-22T14:01:08;8.63;;;2.75;;
58647;SDS011;45992;45.920;20.074;2022-07-22T14:03:38;7.78;;;3.15;;
58647;SDS011;45992;45.920;20.074;2022-07-22T14:06:04;8.15;;;2.85;;
58647;SDS011;45992;45.920;20.074;2022-07-22T14:08:31;7.55;;;3.47;;
58647;SDS011;45992;45.920;20.074;2022-07-22T14:10:57;9.32;;;2.85;;
58647;SDS011;45992;45.920;20.074;2022-07-22T14:13:23;8.75;;;3.33;;
58647;SDS011;45992;45.920;20.074;2022-07-22T14:15:49;7.53;;;3.20;;
58647;SDS011;45992;45.920;20.074;2022-07-22T14:18:15;8.85;;;3.00;;
58647;SDS011;45992;45.920;20.074;2022-07-22T14:20:41;7.30;;;2.85;;
58647;SDS011;45992;45.920;20.074;2022-07-22T14:23:08;7.68;;;3.05;;
58647;SDS011;45992;45.920;20.074;2022-07-22T14:25:38;7.43;;;2.58;;
58647;SDS011;45992;45.920;20.074;2022-07-22T14:28:05;9.70;;;3.33;;
58647;SDS011;45992;45.920;20.074;2022-07-22T14:30:31;11.13;;;3.40;;
58647;SDS011;45992;45.920;20.074;2022-07-22T14:32:57;8.80;;;3.67;;
58647;SDS011;45992;45.920;20.074;2022-07-22T14:35:23;6.93;;;3.30;;
58647;SDS011;45992;45.920;20.074;2022-07-22T14:37:49;6.50;;;3.00;;
58647;SDS011;45992;45.920;20.074;2022-07-22T14:40:15;9.55;;;3.20;;
58647;SDS011;45992;45.920;20.074;2022-07-22T14:42:41;11.88;;;3.20;;
58647;SDS011;45992;45.920;20.074;2022-07-22T14:45:08;6.30;;;3.13;;
58647;SDS011;45992;45.920;20.074;2022-07-22T14:47:37;6.97;;;3.35;;
58647;SDS011;45992;45.920;20.074;2022-07-22T14:50:06;9.40;;;3.45;;
58647;SDS011;45992;45.920;20.074;2022-07-22T14:52:33;9.40;;;3.45;;
58647;SDS011;45992;45.920;20.074;2022-07-22T14:55:00;8.82;;;3.28;;
58647;SDS011;45992;45.920;20.074;2022-07-22T14:57:26;8.55;;;3.70;;
58647;SDS011;45992;45.920;20.074;2022-07-22T14:59:52;8.00;;;3.90;;
58647;SDS011;45992;45.920;20.074;2022-07-22T15:02:18;11.75;;;4.45;;
58647;SDS011;45992;45.920;20.074;2022-07-22T15:04:45;8.93;;;3.42;;
58647;SDS011;45992;45.920;20.074;2022-07-22T15:07:11;9.05;;;4.20;;
58647;SDS011;45992;45.920;20.074;2022-07-22T15:09:37;6.90;;;3.60;;
58647;SDS011;45992;45.920;20.074;2022-07-22T15:12:03;7.95;;;3.63;;
58647;SDS011;45992;45.920;20.074;2022-07-22T15:14:29;8.90;;;3.75;;
58647;SDS011;45992;45.920;20.074;2022-07-22T15:16:56;9.73;;;3.35;;